createdAt,value
2023-03-20T00:03:29.837Z,8.51
2023-03-20T00:07:32.240Z,8.53
2023-03-20T00:11:37.046Z,8.52
2023-03-20T00:15:43.054Z,8.50
2023-03-20T00:19:45.215Z,8.53
2023-03-20T00:23:47.776Z,8.53
2023-03-20T00:27:50.555Z,8.46
2023-03-20T00:31:53.966Z,8.32
2023-03-20T00:35:56.492Z,8.35
2023-03-20T00:39:58.541Z,8.41
2023-03-20T00:44:23.792Z,8.39
2023-03-20T00:48:26.544Z,8.40
2023-03-20T00:52:28.576Z,8.39
2023-03-20T00:56:34.871Z,8.42
2023-03-20T01:00:40.369Z,8.48
2023-03-20T01:04:42.613Z,8.47
2023-03-20T01:08:44.918Z,8.44
2023-03-20T01:12:47.692Z,8.40
2023-03-20T01:16:49.754Z,8.44
2023-03-20T01:20:53.038Z,8.55
2023-03-20T01:24:55.190Z,8.59
2023-03-20T01:28:57.553Z,8.62
2023-03-20T01:33:03.012Z,8.63
2023-03-20T01:37:11.462Z,8.64
2023-03-20T01:41:19.066Z,8.62
2023-03-20T01:45:22.688Z,8.58
2023-03-20T01:49:24.680Z,8.55
2023-03-20T01:53:29.670Z,8.55
2023-03-20T01:57:37.482Z,8.59
2023-03-20T02:01:41.671Z,8.62
2023-03-20T02:05:44.839Z,8.63
2023-03-20T02:09:48.882Z,8.65
2023-03-20T02:13:59.597Z,8.66
2023-03-20T02:18:05.803Z,8.74
2023-03-20T02:22:26.821Z,8.78
2023-03-20T02:26:50.946Z,8.82
2023-03-20T02:31:06.030Z,8.88
2023-03-20T02:35:47.844Z,8.98
2023-03-20T02:40:36.061Z,8.99
2023-03-20T02:44:51.880Z,8.97
2023-03-20T02:49:02.615Z,9.01
2023-03-20T02:53:31.484Z,9.07
2023-03-20T02:57:58.408Z,9.09
2023-03-20T03:02:08.926Z,9.17
2023-03-20T03:06:26.758Z,9.13
2023-03-20T03:10:46.371Z,9.10
2023-03-20T03:14:52.774Z,9.10
2023-03-20T03:19:09.302Z,9.13
2023-03-20T03:23:22.591Z,9.14
2023-03-20T03:27:34.186Z,9.17
2023-03-20T03:31:38.125Z,9.18
2023-03-20T03:35:41.564Z,9.14
2023-03-20T03:39:52.047Z,9.13
2023-03-20T03:44:06.915Z,9.11
2023-03-20T03:48:18.622Z,9.13
2023-03-20T03:52:24.662Z,9.10
2023-03-20T03:56:29.950Z,9.04
2023-03-20T04:00:33.954Z,9.00
2023-03-20T04:04:38.943Z,8.83
2023-03-20T04:08:41.791Z,8.72
2023-03-20T04:12:45.324Z,8.76
2023-03-20T04:16:47.765Z,8.63
2023-03-20T04:20:49.885Z,8.56
2023-03-20T04:24:52.634Z,8.50
2023-03-20T04:28:55.314Z,8.39
2023-03-20T04:33:18.690Z,8.28
2023-03-20T04:37:49.827Z,8.18
2023-03-20T04:41:52.504Z,8.16
2023-03-20T04:45:54.694Z,8.09
2023-03-20T04:49:56.952Z,8.00
2023-03-20T04:53:59.035Z,7.93
2023-03-20T04:58:01.284Z,7.90
2023-03-20T05:02:04.829Z,7.90
2023-03-20T05:06:08.065Z,7.85
2023-03-20T05:10:11.887Z,7.86
2023-03-20T05:14:22.005Z,7.95
2023-03-20T05:18:42.804Z,7.96
2023-03-20T05:22:59.891Z,7.90
2023-03-20T05:27:25.338Z,7.88
2023-03-20T05:31:39.707Z,7.85
2023-03-20T05:36:03.979Z,7.86
2023-03-20T05:40:29.534Z,7.97
2023-03-20T05:44:50.113Z,8.04
2023-03-20T05:48:52.146Z,8.02
2023-03-20T05:53:26.259Z,8.03
2023-03-20T05:57:46.388Z,7.99
2023-03-20T06:02:03.920Z,7.87
2023-03-20T06:06:09.879Z,7.83
2023-03-20T06:10:12.419Z,7.92
2023-03-20T06:14:14.498Z,7.90
2023-03-20T06:18:19.210Z,7.83
2023-03-20T06:22:21.472Z,7.80
2023-03-20T06:26:23.681Z,7.78
2023-03-20T06:30:35.761Z,7.82
2023-03-20T06:34:38.423Z,7.87
2023-03-20T06:38:40.686Z,7.97
2023-03-20T06:42:47.908Z,8.06
2023-03-20T06:46:52.053Z,8.19
2023-03-20T06:50:54.785Z,8.30
2023-03-20T06:55:01.589Z,8.39
2023-03-20T06:59:03.600Z,8.42
2023-03-20T07:03:06.147Z,8.46
2023-03-20T07:07:09.470Z,8.54
2023-03-20T07:11:11.651Z,8.64
2023-03-20T07:15:14.097Z,8.63
2023-03-20T07:19:16.375Z,8.68
2023-03-20T07:23:21.781Z,9.07
2023-03-20T07:27:24.059Z,9.44
2023-03-20T07:31:31.234Z,9.18
2023-03-20T07:35:56.519Z,9.03
2023-03-20T07:39:58.928Z,8.96
2023-03-20T07:44:19.351Z,8.95
2023-03-20T07:48:31.040Z,9.02
2023-03-20T07:52:33.814Z,9.19
2023-03-20T07:56:35.894Z,9.32
2023-03-20T08:00:37.973Z,9.59
2023-03-20T08:04:40.173Z,9.80
2023-03-20T08:08:42.891Z,10.04
2023-03-20T08:12:45.213Z,10.24
2023-03-20T08:16:49.344Z,10.36
2023-03-20T08:20:54.132Z,10.24
2023-03-20T08:24:56.362Z,10.19
2023-03-20T08:28:59.587Z,10.21
2023-03-20T08:33:02.108Z,10.46
2023-03-20T08:37:05.001Z,10.73
2023-03-20T08:41:07.831Z,10.95
2023-03-20T08:45:11.137Z,11.19
2023-03-20T08:49:13.691Z,11.29
2023-03-20T08:53:15.796Z,11.41
2023-03-20T08:57:17.823Z,11.62
2023-03-20T09:01:19.866Z,11.90
2023-03-20T09:05:21.944Z,12.10
2023-03-20T09:09:29.249Z,12.16
2023-03-20T09:13:31.260Z,12.29
2023-03-20T09:17:33.317Z,12.19
2023-03-20T09:21:35.330Z,12.13
2023-03-20T09:25:37.591Z,12.15
2023-03-20T09:29:40.958Z,12.31
2023-03-20T09:33:43.032Z,12.61
2023-03-20T09:37:45.315Z,12.82
2023-03-20T09:41:57.128Z,12.84
2023-03-20T09:46:26.779Z,12.96
2023-03-20T09:50:38.007Z,13.09
2023-03-20T09:54:53.955Z,13.32
2023-03-20T09:58:59.406Z,13.56
2023-03-20T10:03:04.622Z,13.74
2023-03-20T10:07:07.001Z,13.53
2023-03-20T10:11:44.952Z,13.47
2023-03-20T10:15:52.912Z,13.41
2023-03-20T10:20:04.178Z,13.18
2023-03-20T10:24:15.796Z,12.95
2023-03-20T10:28:25.052Z,12.76
2023-03-20T10:32:41.711Z,12.73
2023-03-20T10:36:57.897Z,12.84
2023-03-20T10:41:00.351Z,13.25
2023-03-20T10:45:12.463Z,13.37
2023-03-20T10:49:21.597Z,13.42
2023-03-20T10:53:31.314Z,13.45
2023-03-20T10:57:42.192Z,13.42
2023-03-20T11:01:44.371Z,13.30
2023-03-20T11:06:06.637Z,13.16
2023-03-20T11:10:16.785Z,13.26
2023-03-20T11:14:21.078Z,13.20
2023-03-20T11:18:26.348Z,13.12
2023-03-20T11:22:29.350Z,13.11
2023-03-20T11:26:41.980Z,13.13
2023-03-20T11:31:03.255Z,13.26
2023-03-20T11:35:17.932Z,13.54
2023-03-20T11:39:27.211Z,13.78
2023-03-20T11:43:37.146Z,13.90
2023-03-20T11:47:39.902Z,13.90
2023-03-20T11:51:41.880Z,13.87
2023-03-20T11:55:57.482Z,13.73
2023-03-20T12:00:06.390Z,13.86
2023-03-20T12:04:12.804Z,13.97
2023-03-20T12:08:23.184Z,14.00
2023-03-20T12:12:36.885Z,13.94
2023-03-20T12:16:40.377Z,14.00
2023-03-20T12:21:04.632Z,13.85
2023-03-20T12:25:21.958Z,13.92
2023-03-20T12:29:32.146Z,13.99
2023-03-20T12:33:37.141Z,13.99
2023-03-20T12:37:39.438Z,13.92
2023-03-20T12:41:49.685Z,13.92
2023-03-20T12:46:00.919Z,14.00
2023-03-20T12:50:21.787Z,14.07
2023-03-20T12:54:23.726Z,14.17
2023-03-20T12:58:32.760Z,14.08
2023-03-20T13:02:43.832Z,14.03
2023-03-20T13:06:53.309Z,14.06
2023-03-20T13:10:55.278Z,14.17
2023-03-20T13:15:23.558Z,14.16
2023-03-20T13:19:29.291Z,14.16
2023-03-20T13:23:42.415Z,14.01
2023-03-20T13:28:10.107Z,14.02
2023-03-20T13:32:39.656Z,14.07
2023-03-20T13:36:50.976Z,13.98
2023-03-20T13:41:09.675Z,14.00
2023-03-20T13:45:33.621Z,13.99
2023-03-20T13:49:38.865Z,13.82
2023-03-20T13:54:02.396Z,13.89
2023-03-20T13:58:22.842Z,13.83
2023-03-20T14:03:03.895Z,13.74
2023-03-20T14:07:28.604Z,13.45
2023-03-20T14:11:37.817Z,13.31
2023-03-20T14:15:47.638Z,13.34
2023-03-20T14:19:51.513Z,13.16
2023-03-20T14:24:06.488Z,13.05
2023-03-20T14:28:11.227Z,12.87
2023-03-20T14:32:13.186Z,12.81
2023-03-20T14:36:21.894Z,12.79
2023-03-20T14:40:29.232Z,12.85
2023-03-20T14:44:38.806Z,12.80
2023-03-20T14:49:15.760Z,13.01
2023-03-20T14:53:21.035Z,13.22
2023-03-20T14:57:55.463Z,13.37
2023-03-20T15:02:03.070Z,13.34
2023-03-20T15:06:07.725Z,13.02
2023-03-20T15:10:10.292Z,12.69
2023-03-20T15:14:20.983Z,12.40
2023-03-20T15:18:25.683Z,11.97
2023-03-20T15:22:27.724Z,11.64
2023-03-20T15:26:32.947Z,11.41
2023-03-20T15:30:38.956Z,11.46
2023-03-20T15:34:43.016Z,11.47
2023-03-20T15:38:46.845Z,11.38
2023-03-20T15:42:54.462Z,11.26
2023-03-20T15:46:58.954Z,11.17
2023-03-20T15:51:05.513Z,11.08
2023-03-20T15:55:14.159Z,10.90
2023-03-20T15:59:19.110Z,10.82
2023-03-20T16:03:23.894Z,10.67
2023-03-20T16:07:33.097Z,10.65
2023-03-20T16:11:38.665Z,10.61
2023-03-20T16:15:41.000Z,10.66
2023-03-20T16:19:43.702Z,10.58
2023-03-20T16:23:49.736Z,10.41
2023-03-20T16:27:52.864Z,10.36
2023-03-20T16:32:05.381Z,10.21
2023-03-20T16:36:08.178Z,10.15
2023-03-20T16:40:28.749Z,10.11
2023-03-20T16:44:36.905Z,10.10
2023-03-20T16:48:42.506Z,10.10
2023-03-20T16:52:56.796Z,10.07
2023-03-20T16:56:59.829Z,10.08
2023-03-20T17:01:05.005Z,10.04
2023-03-20T17:05:13.154Z,9.91
2023-03-20T17:09:18.749Z,9.83
2023-03-20T17:13:21.028Z,9.77
2023-03-20T17:17:25.008Z,9.71
2023-03-20T17:21:27.259Z,9.67
2023-03-20T17:25:29.593Z,9.59
2023-03-20T17:29:31.725Z,9.54
2023-03-20T17:33:33.852Z,9.52
2023-03-20T17:37:36.011Z,9.44
2023-03-20T17:41:38.016Z,9.37
2023-03-20T17:45:40.851Z,9.32
2023-03-20T17:49:44.082Z,9.32
2023-03-20T17:53:46.113Z,9.31
2023-03-20T17:57:48.755Z,9.35
2023-03-20T18:01:50.982Z,9.37
2023-03-20T18:05:53.230Z,9.32
2023-03-20T18:09:55.529Z,9.33
2023-03-20T18:13:57.609Z,9.39
2023-03-20T18:17:59.877Z,9.45
2023-03-20T18:22:02.281Z,9.44
2023-03-20T18:26:04.699Z,9.43
2023-03-20T18:30:14.780Z,9.48
2023-03-20T18:34:16.837Z,9.44
2023-03-20T18:38:18.982Z,9.39
2023-03-20T18:42:21.250Z,9.39
2023-03-20T18:46:25.238Z,9.38
2023-03-20T18:50:40.865Z,9.37
2023-03-20T18:54:43.094Z,9.35
2023-03-20T18:58:46.341Z,9.33
2023-03-20T19:02:50.370Z,9.35
2023-03-20T19:06:52.876Z,9.36
2023-03-20T19:10:54.964Z,9.34
2023-03-20T19:14:57.110Z,9.24
2023-03-20T19:19:01.495Z,9.25
2023-03-20T19:23:05.837Z,9.24
2023-03-20T19:27:10.170Z,9.19
2023-03-20T19:31:12.758Z,9.18
2023-03-20T19:35:46.736Z,9.23
2023-03-20T19:39:37.748Z,9.15
2023-03-20T19:43:51.695Z,9.07
2023-03-20T19:47:54.768Z,8.99
2023-03-20T19:51:56.796Z,8.98
2023-03-20T19:55:58.799Z,8.93
2023-03-20T20:00:48.708Z,8.87
2023-03-20T20:04:22.829Z,8.88
2023-03-20T20:08:45.235Z,8.91
2023-03-20T20:12:48.300Z,8.95
2023-03-20T20:16:52.639Z,9.07
2023-03-20T20:22:06.314Z,9.05
2023-03-20T20:25:20.569Z,8.97
2023-03-20T20:29:24.473Z,8.90
2023-03-20T20:33:28.975Z,8.87
2023-03-20T20:41:53.987Z,8.82
2023-03-20T20:45:56.005Z,8.83
2023-03-20T20:49:58.083Z,8.82
2023-03-20T20:54:01.122Z,8.81
2023-03-20T20:58:04.195Z,8.84
2023-03-20T21:02:11.277Z,8.84
2023-03-20T21:06:13.535Z,8.77
2023-03-20T21:10:18.290Z,8.76
2023-03-20T21:14:20.399Z,8.75
2023-03-20T21:18:22.653Z,8.73
2023-03-20T21:22:25.700Z,8.67
2023-03-20T21:26:27.770Z,8.69
2023-03-20T21:30:30.371Z,8.69
2023-03-20T21:34:32.734Z,8.78
2023-03-20T21:42:57.802Z,8.79
2023-03-20T21:47:44.505Z,8.76
2023-03-20T21:56:40.202Z,8.81
2023-03-20T22:18:12.227Z,8.72
2023-03-20T22:22:42.591Z,8.75
2023-03-20T22:27:14.822Z,8.76
2023-03-20T22:31:26.838Z,8.74
2023-03-20T22:48:10.857Z,8.76
2023-03-20T22:52:29.037Z,8.69
2023-03-20T22:56:31.372Z,8.75
2023-03-20T23:00:33.551Z,8.74
2023-03-20T23:04:35.700Z,8.66
2023-03-20T23:08:48.013Z,8.67
2023-03-20T23:12:52.554Z,8.63
2023-03-20T23:16:54.662Z,8.60
2023-03-20T23:21:01.141Z,8.64
2023-03-20T23:25:13.321Z,8.67
2023-03-20T23:29:21.154Z,8.66
2023-03-20T23:33:23.315Z,8.65
2023-03-20T23:37:25.429Z,8.67
2023-03-20T23:41:49.619Z,8.69
2023-03-20T23:45:49.897Z,8.69
2023-03-20T23:49:51.966Z,8.68
2023-03-20T23:53:54.054Z,8.70
2023-03-20T23:57:56.081Z,8.68
